createdAt,value
2018-05-31T00:01:12.655Z,9.10
2018-05-31T00:03:40.958Z,7.50
2018-05-31T00:06:09.293Z,7.50
2018-05-31T00:08:37.592Z,8.38
2018-05-31T00:11:05.916Z,8.90
2018-05-31T00:13:34.228Z,8.02
2018-05-31T00:16:02.570Z,9.10
2018-05-31T00:18:30.879Z,7.80
2018-05-31T00:20:59.211Z,7.52
2018-05-31T00:23:27.508Z,7.24
2018-05-31T00:25:55.843Z,8.32
2018-05-31T00:28:24.149Z,8.98
2018-05-31T00:30:52.487Z,9.08
2018-05-31T00:33:20.803Z,8.84
2018-05-31T00:35:49.132Z,8.86
2018-05-31T00:38:17.448Z,8.46
2018-05-31T00:40:45.767Z,9.66
2018-05-31T00:43:14.072Z,7.86
2018-05-31T00:45:42.390Z,9.02
2018-05-31T00:48:09.924Z,7.28
2018-05-31T00:50:38.258Z,7.68
2018-05-31T00:53:06.558Z,7.08
2018-05-31T00:55:46.805Z,7.02
2018-05-31T00:58:15.111Z,7.40
2018-05-31T01:00:43.447Z,6.96
2018-05-31T01:03:11.763Z,6.58
2018-05-31T01:05:40.091Z,6.10
2018-05-31T01:08:08.391Z,6.66
2018-05-31T01:10:36.723Z,6.24
2018-05-31T01:13:05.036Z,6.32
2018-05-31T01:15:33.375Z,6.80
2018-05-31T01:18:01.711Z,6.20
2018-05-31T01:20:30.012Z,6.50
2018-05-31T01:22:58.316Z,5.20
2018-05-31T01:25:26.643Z,5.44
2018-05-31T01:27:54.954Z,5.56
2018-05-31T01:30:23.278Z,5.70
2018-05-31T01:32:51.575Z,5.02
2018-05-31T01:35:19.910Z,5.28
2018-05-31T01:37:48.218Z,5.98
2018-05-31T01:40:16.520Z,5.08
2018-05-31T01:42:44.846Z,5.42
2018-05-31T01:45:13.151Z,5.30
2018-05-31T01:47:41.495Z,4.26
2018-05-31T01:50:09.794Z,4.60
2018-05-31T01:52:38.115Z,4.60
2018-05-31T01:55:06.411Z,4.57
2018-05-31T01:57:34.738Z,4.50
2018-05-31T02:00:03.075Z,4.14
2018-05-31T02:02:31.407Z,4.66
2018-05-31T02:04:59.711Z,4.28
2018-05-31T02:07:28.030Z,4.54
2018-05-31T02:09:56.327Z,4.16
2018-05-31T02:12:24.652Z,3.42
2018-05-31T02:14:52.962Z,3.80
2018-05-31T02:17:21.290Z,3.74
2018-05-31T02:19:49.602Z,3.60
2018-05-31T02:22:17.934Z,3.92
2018-05-31T02:24:46.245Z,3.22
2018-05-31T02:27:14.565Z,3.66
2018-05-31T02:29:42.866Z,3.46
2018-05-31T02:32:11.189Z,3.98
2018-05-31T02:34:39.483Z,3.54
2018-05-31T02:37:07.799Z,3.76
2018-05-31T02:39:36.106Z,3.84
2018-05-31T02:42:04.440Z,3.74
2018-05-31T02:44:32.738Z,4.04
2018-05-31T02:47:01.064Z,4.30
2018-05-31T02:49:29.367Z,3.50
2018-05-31T02:51:57.697Z,3.80
2018-05-31T02:54:26.006Z,3.58
2018-05-31T02:56:54.330Z,3.84
2018-05-31T02:59:22.631Z,3.40
2018-05-31T03:01:50.955Z,3.76
2018-05-31T03:04:19.258Z,4.22
2018-05-31T03:06:47.582Z,3.58
2018-05-31T03:09:15.892Z,3.82
2018-05-31T03:11:44.218Z,3.50
2018-05-31T03:14:12.526Z,3.50
2018-05-31T03:16:40.855Z,3.43
2018-05-31T03:19:09.155Z,3.70
2018-05-31T03:21:37.479Z,3.64
2018-05-31T03:24:05.769Z,3.72
2018-05-31T03:26:34.084Z,4.00
2018-05-31T03:29:02.447Z,3.50
2018-05-31T03:31:30.750Z,3.44
2018-05-31T03:33:59.064Z,3.50
2018-05-31T03:36:27.367Z,4.38
2018-05-31T03:38:55.694Z,3.46
2018-05-31T03:41:32.098Z,4.00
2018-05-31T03:44:00.422Z,3.82
2018-05-31T03:46:28.718Z,3.60
2018-05-31T03:48:57.039Z,4.12
2018-05-31T03:51:25.342Z,3.32
2018-05-31T03:53:53.671Z,3.70
2018-05-31T03:56:21.975Z,3.40
2018-05-31T03:58:50.307Z,3.82
2018-05-31T04:01:18.616Z,3.84
2018-05-31T04:03:46.946Z,3.82
2018-05-31T04:06:15.238Z,3.96
2018-05-31T04:08:43.559Z,4.12
2018-05-31T04:11:11.855Z,4.14
2018-05-31T04:13:40.180Z,4.28
2018-05-31T04:16:08.482Z,3.66
2018-05-31T04:18:36.807Z,3.50
2018-05-31T04:21:05.106Z,3.88
2018-05-31T04:23:33.422Z,3.88
2018-05-31T04:26:01.723Z,3.68
2018-05-31T04:28:30.058Z,3.86
2018-05-31T04:30:58.366Z,3.76
2018-05-31T04:33:26.689Z,3.70
2018-05-31T04:35:54.986Z,3.48
2018-05-31T04:38:23.315Z,3.74
2018-05-31T04:40:51.615Z,3.24
2018-05-31T04:43:19.943Z,4.04
2018-05-31T04:45:48.242Z,4.22
2018-05-31T04:48:16.571Z,3.32
2018-05-31T04:50:44.874Z,3.72
2018-05-31T04:53:13.195Z,3.98
2018-05-31T04:55:41.504Z,3.80
2018-05-31T04:58:09.831Z,3.82
2018-05-31T05:00:38.141Z,3.34
2018-05-31T05:03:06.471Z,4.12
2018-05-31T05:05:34.775Z,3.38
2018-05-31T05:08:03.352Z,4.24
2018-05-31T05:10:32.646Z,3.96
2018-05-31T05:13:00.966Z,3.80
2018-05-31T05:15:29.273Z,4.14
2018-05-31T05:17:57.595Z,3.48
2018-05-31T05:20:26.534Z,3.56
2018-05-31T05:22:54.831Z,3.52
2018-05-31T05:25:23.163Z,4.32
2018-05-31T05:27:51.457Z,4.05
2018-05-31T05:30:19.774Z,3.82
2018-05-31T05:32:48.079Z,3.86
2018-05-31T05:35:16.403Z,4.02
2018-05-31T05:37:44.698Z,4.16
2018-05-31T05:40:13.013Z,4.14
2018-05-31T05:42:41.327Z,4.40
2018-05-31T05:45:09.659Z,4.02
2018-05-31T05:47:37.962Z,3.68
2018-05-31T05:50:06.313Z,3.78
2018-05-31T05:52:34.597Z,4.08
2018-05-31T05:55:02.159Z,4.40
2018-05-31T05:57:30.463Z,3.78
2018-05-31T05:59:58.795Z,4.02
2018-05-31T06:02:27.097Z,4.14
2018-05-31T06:04:55.414Z,3.70
2018-05-31T06:07:23.714Z,3.38
2018-05-31T06:09:52.069Z,4.24
2018-05-31T06:12:20.343Z,4.10
2018-05-31T06:14:48.660Z,4.48
2018-05-31T06:17:16.962Z,4.04
2018-05-31T06:19:45.308Z,4.18
2018-05-31T06:22:13.593Z,3.70
2018-05-31T06:24:41.915Z,3.82
2018-05-31T06:27:10.215Z,3.88
2018-05-31T06:29:38.540Z,7.38
2018-05-31T06:32:06.855Z,17.90
2018-05-31T06:34:35.196Z,4.60
2018-05-31T06:37:03.484Z,3.88
2018-05-31T06:39:31.799Z,3.92
2018-05-31T06:42:00.090Z,4.23
2018-05-31T06:44:28.402Z,6.40
2018-05-31T06:46:56.702Z,4.70
2018-05-31T06:49:25.011Z,4.58
2018-05-31T06:51:53.303Z,4.18
2018-05-31T06:54:21.645Z,3.68
2018-05-31T06:56:49.915Z,3.92
2018-05-31T06:59:18.231Z,3.68
2018-05-31T07:01:46.524Z,4.02
2018-05-31T07:04:14.818Z,4.20
2018-05-31T07:06:43.143Z,4.28
2018-05-31T07:09:11.435Z,3.66
2018-05-31T07:11:39.803Z,3.86
2018-05-31T07:14:08.129Z,5.00
2018-05-31T07:16:36.446Z,4.40
2018-05-31T07:19:04.730Z,4.60
2018-05-31T07:21:33.078Z,4.72
2018-05-31T07:24:01.371Z,3.90
2018-05-31T07:26:29.692Z,3.80
2018-05-31T07:28:57.988Z,4.02
2018-05-31T07:31:26.307Z,3.40
2018-05-31T07:33:54.598Z,3.30
2018-05-31T07:36:22.903Z,4.02
2018-05-31T07:38:51.402Z,3.88
2018-05-31T07:41:19.719Z,3.60
2018-05-31T07:43:47.238Z,4.24
2018-05-31T07:46:15.555Z,3.62
2018-05-31T07:48:43.838Z,3.48
2018-05-31T07:51:12.201Z,4.16
2018-05-31T07:53:40.613Z,4.04
2018-05-31T07:56:08.950Z,4.20
2018-05-31T07:58:37.348Z,5.30
2018-05-31T08:01:05.678Z,5.40
2018-05-31T08:03:33.206Z,5.18
2018-05-31T08:06:01.582Z,4.92
2018-05-31T08:08:29.835Z,4.98
2018-05-31T08:10:58.154Z,4.36
2018-05-31T08:13:26.448Z,3.84
2018-05-31T08:15:54.759Z,4.35
2018-05-31T08:18:23.061Z,4.30
2018-05-31T08:20:51.351Z,4.88
2018-05-31T08:23:19.671Z,3.80
2018-05-31T08:25:47.971Z,4.40
2018-05-31T08:28:16.299Z,4.76
2018-05-31T08:30:44.599Z,4.66
2018-05-31T08:33:12.906Z,4.14
2018-05-31T08:35:41.203Z,4.56
2018-05-31T08:38:09.520Z,4.40
2018-05-31T08:40:37.812Z,4.86
2018-05-31T08:43:06.123Z,5.12
2018-05-31T08:45:34.419Z,4.56
2018-05-31T08:48:02.774Z,4.54
2018-05-31T08:50:31.075Z,4.84
2018-05-31T08:52:59.387Z,4.40
2018-05-31T08:55:27.691Z,7.72
2018-05-31T08:57:56.006Z,5.50
2018-05-31T09:00:24.295Z,4.80
2018-05-31T09:02:52.608Z,5.04
2018-05-31T09:05:20.902Z,4.68
2018-05-31T09:07:48.455Z,5.26
2018-05-31T09:10:16.747Z,4.84
2018-05-31T09:12:45.055Z,4.70
2018-05-31T09:15:13.373Z,5.10
2018-05-31T09:17:41.678Z,4.60
2018-05-31T09:20:09.966Z,4.90
2018-05-31T09:22:38.282Z,4.72
2018-05-31T09:25:06.570Z,5.00
2018-05-31T09:27:34.885Z,5.32
2018-05-31T09:30:03.179Z,4.96
2018-05-31T09:32:31.495Z,4.56
2018-05-31T09:34:59.827Z,5.10
2018-05-31T09:37:28.119Z,5.10
2018-05-31T09:39:56.414Z,5.02
2018-05-31T09:42:24.723Z,4.72
2018-05-31T09:44:53.014Z,5.36
2018-05-31T09:47:21.326Z,5.04
2018-05-31T09:49:49.615Z,4.98
2018-05-31T09:52:17.934Z,5.98
2018-05-31T09:54:46.252Z,4.56
2018-05-31T09:57:13.778Z,4.72
2018-05-31T09:59:42.088Z,4.70
2018-05-31T10:02:10.387Z,5.14
2018-05-31T10:04:39.635Z,5.26
2018-05-31T10:07:07.159Z,5.18
2018-05-31T10:09:35.463Z,5.20
2018-05-31T10:12:03.754Z,5.28
2018-05-31T10:14:32.067Z,5.18
2018-05-31T10:17:00.359Z,5.96
2018-05-31T10:19:28.670Z,5.20
2018-05-31T10:21:56.954Z,5.88
2018-05-31T10:24:25.266Z,5.10
2018-05-31T10:26:53.559Z,5.28
2018-05-31T10:29:21.891Z,5.70
2018-05-31T10:31:50.183Z,5.26
2018-05-31T10:34:17.731Z,5.80
2018-05-31T10:36:46.025Z,5.62
2018-05-31T10:39:14.333Z,5.52
2018-05-31T10:41:42.623Z,5.44
2018-05-31T10:44:10.940Z,5.56
2018-05-31T10:46:39.224Z,5.63
2018-05-31T10:49:07.538Z,5.98
2018-05-31T10:51:35.827Z,5.94
2018-05-31T10:54:04.137Z,5.50
2018-05-31T10:56:32.469Z,4.97
2018-05-31T10:59:00.787Z,6.16
2018-05-31T11:01:29.078Z,5.50
2018-05-31T11:03:57.390Z,5.28
2018-05-31T11:06:25.687Z,6.14
2018-05-31T11:08:54.006Z,5.06
2018-05-31T11:11:22.300Z,4.60
2018-05-31T11:13:50.615Z,4.92
2018-05-31T11:16:18.899Z,4.98
2018-05-31T11:18:47.227Z,5.70
2018-05-31T11:21:15.526Z,5.38
2018-05-31T11:23:43.843Z,5.45
2018-05-31T11:26:12.134Z,4.90
2018-05-31T11:28:40.466Z,5.72
2018-05-31T11:31:08.759Z,4.72
2018-05-31T11:33:37.046Z,5.20
2018-05-31T11:36:04.586Z,5.20
2018-05-31T11:38:32.105Z,6.26
2018-05-31T11:41:00.414Z,4.74
2018-05-31T11:43:28.709Z,4.40
2018-05-31T11:45:57.022Z,4.24
2018-05-31T11:48:25.315Z,5.12
2018-05-31T11:50:53.636Z,4.42
2018-05-31T11:53:21.918Z,3.34
2018-05-31T11:55:50.223Z,3.00
2018-05-31T11:58:18.516Z,3.10
2018-05-31T12:00:46.831Z,3.02
2018-05-31T12:03:15.126Z,3.52
2018-05-31T12:05:42.679Z,2.92
2018-05-31T12:08:11.032Z,2.56
2018-05-31T12:10:39.299Z,2.76
2018-05-31T12:13:07.587Z,5.78
2018-05-31T12:15:35.903Z,2.30
2018-05-31T12:18:04.192Z,2.54
2018-05-31T12:20:32.507Z,2.56
2018-05-31T12:23:00.822Z,2.86
2018-05-31T12:25:29.167Z,3.10
2018-05-31T12:27:57.447Z,2.74
2018-05-31T12:30:25.763Z,2.56
2018-05-31T12:32:54.053Z,2.68
2018-05-31T12:35:22.357Z,2.62
2018-05-31T12:37:50.647Z,2.46
2018-05-31T12:40:18.950Z,2.10
2018-05-31T12:42:47.234Z,2.46
2018-05-31T12:45:15.555Z,2.70
2018-05-31T12:47:43.106Z,2.40
2018-05-31T12:50:11.418Z,2.80
2018-05-31T12:52:38.938Z,2.20
2018-05-31T12:55:07.255Z,2.64
2018-05-31T12:57:34.787Z,3.22
2018-05-31T13:00:03.123Z,2.76
2018-05-31T13:02:31.415Z,2.84
2018-05-31T13:04:59.718Z,3.46
2018-05-31T13:07:28.024Z,3.10
2018-05-31T13:09:56.322Z,3.04
2018-05-31T13:12:24.630Z,3.06
2018-05-31T13:14:53.499Z,3.08
2018-05-31T13:17:21.814Z,3.32
2018-05-31T13:19:50.102Z,2.82
2018-05-31T13:22:18.415Z,3.26
2018-05-31T13:24:46.707Z,2.84
2018-05-31T13:27:15.022Z,3.30
2018-05-31T13:29:43.311Z,2.90
2018-05-31T13:32:11.623Z,2.72
2018-05-31T13:34:39.919Z,3.16
2018-05-31T13:37:08.232Z,3.12
2018-05-31T13:39:36.523Z,3.22
2018-05-31T13:42:04.834Z,3.16
2018-05-31T13:44:33.158Z,2.86
2018-05-31T13:47:01.487Z,3.10
2018-05-31T13:49:29.787Z,4.66
2018-05-31T13:51:58.095Z,3.18
2018-05-31T13:54:26.427Z,3.38
2018-05-31T13:56:54.733Z,3.20
2018-05-31T13:59:23.144Z,8.84
2018-05-31T14:01:51.463Z,3.50
2018-05-31T14:04:19.864Z,3.04
2018-05-31T14:06:48.199Z,11.62
2018-05-31T14:09:16.527Z,3.58
2018-05-31T14:11:44.924Z,7.56
2018-05-31T14:14:13.246Z,3.10
2018-05-31T14:16:41.643Z,3.26
2018-05-31T14:19:09.223Z,3.02
2018-05-31T14:21:37.570Z,3.10
2018-05-31T14:24:05.915Z,5.34
2018-05-31T14:26:34.361Z,3.70
2018-05-31T14:29:02.813Z,11.76
2018-05-31T14:31:31.261Z,3.20
2018-05-31T14:33:59.675Z,3.77
2018-05-31T14:36:28.106Z,25.58
2018-05-31T14:38:55.694Z,3.64
2018-05-31T14:41:24.088Z,5.00
2018-05-31T14:43:52.454Z,36.26
2018-05-31T14:46:20.783Z,4.56
2018-05-31T14:48:49.080Z,4.32
2018-05-31T14:51:17.378Z,4.40
2018-05-31T14:53:45.690Z,4.12
2018-05-31T14:56:13.987Z,3.70
2018-05-31T14:58:42.294Z,3.30
2018-05-31T15:01:10.589Z,3.26
2018-05-31T15:03:38.902Z,3.28
2018-05-31T15:06:06.462Z,3.78
2018-05-31T15:08:34.779Z,3.26
2018-05-31T15:11:03.103Z,3.44
2018-05-31T15:13:30.652Z,3.02
2018-05-31T15:15:58.944Z,3.14
2018-05-31T15:18:27.254Z,2.88
2018-05-31T15:20:55.547Z,3.50
2018-05-31T15:23:23.859Z,3.36
2018-05-31T15:25:52.162Z,3.80
2018-05-31T15:28:20.466Z,3.20
2018-05-31T15:30:48.761Z,3.24
2018-05-31T15:33:17.067Z,3.40
2018-05-31T15:35:45.366Z,3.40
2018-05-31T15:38:12.925Z,4.36
2018-05-31T15:40:41.224Z,3.10
2018-05-31T15:43:09.557Z,3.70
2018-05-31T15:45:37.850Z,3.40
2018-05-31T15:48:05.451Z,2.90
2018-05-31T15:50:33.740Z,3.30
2018-05-31T15:53:02.058Z,3.44
2018-05-31T15:55:30.358Z,3.43
2018-05-31T15:57:58.675Z,3.66
2018-05-31T16:00:26.962Z,3.40
2018-05-31T16:02:55.262Z,3.82
2018-05-31T16:05:23.558Z,3.82
2018-05-31T16:07:51.870Z,3.50
2018-05-31T16:10:20.163Z,3.92
2018-05-31T16:12:48.476Z,3.80
2018-05-31T16:15:16.766Z,3.34
2018-05-31T16:17:45.083Z,3.48
2018-05-31T16:20:13.370Z,3.76
2018-05-31T16:22:41.686Z,3.66
2018-05-31T16:25:09.979Z,4.14
2018-05-31T16:27:38.270Z,4.52
2018-05-31T16:30:06.606Z,5.04
2018-05-31T16:32:34.899Z,5.36
2018-05-31T16:35:03.263Z,5.78
2018-05-31T16:37:31.547Z,5.20
2018-05-31T16:39:59.861Z,4.82
2018-05-31T16:42:28.150Z,6.08
2018-05-31T16:44:56.463Z,5.86
2018-05-31T16:47:23.994Z,5.90
2018-05-31T16:49:52.310Z,6.14
2018-05-31T16:52:20.656Z,6.18
2018-05-31T16:54:48.983Z,6.64
2018-05-31T16:57:17.278Z,6.90
2018-05-31T16:59:46.454Z,5.92
2018-05-31T17:02:14.752Z,6.50
2018-05-31T17:04:43.079Z,6.80
2018-05-31T17:07:11.427Z,7.56
2018-05-31T17:09:39.735Z,6.76
2018-05-31T17:12:08.032Z,6.72
2018-05-31T17:14:36.354Z,6.76
2018-05-31T17:17:04.652Z,7.38
2018-05-31T17:19:32.971Z,6.70
2018-05-31T17:22:01.274Z,6.26
2018-05-31T17:24:29.587Z,6.98
2018-05-31T17:26:57.883Z,6.56
2018-05-31T17:29:26.207Z,7.40
2018-05-31T17:31:54.496Z,6.85
2018-05-31T17:34:22.818Z,7.40
2018-05-31T17:36:51.123Z,6.80
2018-05-31T17:39:19.439Z,7.10
2018-05-31T17:41:47.726Z,6.40
2018-05-31T17:44:16.031Z,6.34
2018-05-31T17:46:44.323Z,6.46
2018-05-31T17:49:12.686Z,6.15
2018-05-31T17:51:40.959Z,5.90
2018-05-31T17:54:09.274Z,5.82
2018-05-31T17:56:37.563Z,5.46
2018-05-31T17:59:05.872Z,5.78
2018-05-31T18:01:34.174Z,5.00
2018-05-31T18:04:02.501Z,5.52
2018-05-31T18:06:30.802Z,5.22
2018-05-31T18:08:59.100Z,5.80
2018-05-31T18:11:27.410Z,5.18
2018-05-31T18:13:55.698Z,4.48
2018-05-31T18:16:24.018Z,5.04
2018-05-31T18:18:51.551Z,5.06
2018-05-31T18:21:19.895Z,5.02
2018-05-31T18:23:48.210Z,4.82
2018-05-31T18:26:16.563Z,5.16
2018-05-31T18:28:44.914Z,5.02
2018-05-31T18:31:13.298Z,4.80
2018-05-31T18:33:41.588Z,4.26
2018-05-31T18:36:09.915Z,4.88
2018-05-31T18:38:38.247Z,4.30
2018-05-31T18:41:06.578Z,4.42
2018-05-31T18:43:34.857Z,4.54
2018-05-31T18:46:04.180Z,5.40
2018-05-31T18:48:32.482Z,5.57
2018-05-31T18:51:00.835Z,5.30
2018-05-31T18:55:57.008Z,5.10
2018-05-31T19:20:47.471Z,6.70
2018-05-31T19:25:43.621Z,31.12
2018-05-31T19:28:11.914Z,19.52
2018-05-31T19:30:45.998Z,7.34
2018-05-31T19:33:13.525Z,13.48
2018-05-31T19:35:47.422Z,19.00
2018-05-31T19:38:14.947Z,7.88
2018-05-31T19:40:43.301Z,9.50
2018-05-31T19:43:17.428Z,8.26
2018-05-31T19:45:45.752Z,18.76
2018-05-31T19:48:14.048Z,12.64
2018-05-31T19:50:42.375Z,17.88
2018-05-31T19:53:16.404Z,8.88
2018-05-31T19:55:44.709Z,8.76
2018-05-31T19:58:17.987Z,16.86
2018-05-31T20:00:51.873Z,10.60
2018-05-31T20:03:25.795Z,17.02
2018-05-31T20:05:54.110Z,25.67
2018-05-31T20:10:50.287Z,10.32
2018-05-31T20:13:18.582Z,10.36
2018-05-31T20:15:46.870Z,9.00
2018-05-31T20:18:15.183Z,7.22
2018-05-31T20:20:43.510Z,7.92
2018-05-31T20:23:11.819Z,7.40
2018-05-31T20:25:40.107Z,7.62
2018-05-31T20:28:08.418Z,6.84
2018-05-31T20:30:36.735Z,7.98
2018-05-31T20:33:05.086Z,8.84
2018-05-31T20:35:33.382Z,9.40
2018-05-31T20:38:01.706Z,8.68
2018-05-31T20:40:29.994Z,9.08
2018-05-31T20:42:58.310Z,8.05
2018-05-31T20:45:26.602Z,7.45
2018-05-31T20:47:54.915Z,8.34
2018-05-31T20:50:23.202Z,7.58
2018-05-31T20:52:51.514Z,7.76
2018-05-31T20:55:19.806Z,6.66
2018-05-31T20:57:48.123Z,7.84
2018-05-31T21:00:16.422Z,8.32
2018-05-31T21:02:44.738Z,8.02
2018-05-31T21:05:13.034Z,15.64
2018-05-31T21:07:41.359Z,7.32
2018-05-31T21:10:09.655Z,20.00
2018-05-31T21:12:37.207Z,17.30
2018-05-31T21:15:04.738Z,13.22
2018-05-31T21:17:33.047Z,10.44
2018-05-31T21:20:01.391Z,7.56
2018-05-31T21:22:29.664Z,9.60
2018-05-31T21:24:57.982Z,14.38
2018-05-31T21:27:26.302Z,10.26
2018-05-31T21:29:54.691Z,29.26
2018-05-31T21:32:23.002Z,13.84
2018-05-31T21:34:51.753Z,9.82
2018-05-31T21:37:20.069Z,16.66
2018-05-31T21:39:48.360Z,9.32
2018-05-31T21:42:16.673Z,9.44
2018-05-31T21:44:44.970Z,10.00
2018-05-31T21:47:13.303Z,9.20
2018-05-31T21:49:41.599Z,9.62
2018-05-31T21:52:09.912Z,8.24
2018-05-31T21:54:38.242Z,8.50
2018-05-31T21:57:06.534Z,8.38
2018-05-31T21:59:34.847Z,8.10
2018-05-31T22:02:03.997Z,7.94
2018-05-31T22:04:32.315Z,8.15
2018-05-31T22:07:00.629Z,8.45
2018-05-31T22:09:28.954Z,7.72
2018-05-31T22:11:57.234Z,7.48
2018-05-31T22:14:25.551Z,7.40
2018-05-31T22:19:21.742Z,7.90
2018-05-31T22:21:50.010Z,7.94
2018-05-31T22:24:18.327Z,7.28
2018-05-31T22:26:46.626Z,14.84
2018-05-31T22:29:14.958Z,20.48
2018-05-31T22:31:43.255Z,17.02
2018-05-31T22:34:11.571Z,16.92
2018-05-31T22:36:39.918Z,27.40
2018-05-31T22:39:08.206Z,21.40
2018-05-31T22:41:36.510Z,17.08
2018-05-31T22:44:04.826Z,56.10
2018-05-31T22:46:33.150Z,60.10
2018-05-31T22:49:01.481Z,14.62
2018-05-31T22:51:29.778Z,13.86
2018-05-31T22:53:58.090Z,8.50
2018-05-31T22:56:26.389Z,11.98
2018-05-31T22:58:54.710Z,10.04
2018-05-31T23:01:23.011Z,12.56
2018-05-31T23:03:51.330Z,10.22
2018-05-31T23:06:19.631Z,16.30
2018-05-31T23:08:47.960Z,10.68
2018-05-31T23:11:15.496Z,14.14
2018-05-31T23:13:43.810Z,34.92
2018-05-31T23:16:12.101Z,65.86
2018-05-31T23:18:40.423Z,43.44
2018-05-31T23:21:08.719Z,18.06
2018-05-31T23:23:37.041Z,10.24
2018-05-31T23:26:05.335Z,22.34
2018-05-31T23:28:33.659Z,39.50
2018-05-31T23:31:01.956Z,48.05
2018-05-31T23:33:30.246Z,11.84
2018-05-31T23:35:58.560Z,8.16
2018-05-31T23:38:26.853Z,17.20
2018-05-31T23:40:55.176Z,18.32
2018-05-31T23:43:23.472Z,14.40
2018-05-31T23:45:51.790Z,11.50
2018-05-31T23:48:20.084Z,11.16
2018-05-31T23:50:48.390Z,9.94
2018-05-31T23:53:16.683Z,9.04
2018-05-31T23:55:44.991Z,8.10
2018-05-31T23:58:13.276Z,8.16
